Time;durP1;ratioP1;P1;durP2;ratioP2;P2;SDS_P1;SDS_P2;PMS_P1;PMS_P2;Temp;Humidity;BMP_temperature;BMP_pressure;BME280_temperature;BME280_humidity;BME280_pressure;Samples;Min_cycle;Max_cycle;Signal;HPM_P1;HPM_P2
2021/09/02 00:01:27;;;;;;;1.35;1.25;;;;;;;;;;5063596;28;20388;-77
2021/09/02 00:03:53;;;;;;;1.75;1.20;;;12.10;99.90;;;;;;5050409;28;20044;-78
2021/09/02 00:06:18;;;;;;;2.65;1.52;;;12.00;99.90;;;;;;5061383;28;20033;-78
2021/09/02 00:08:44;;;;;;;1.15;0.93;;;12.00;99.90;;;;;;5064626;28;20433;-77
2021/09/02 00:11:10;;;;;;;2.88;1.73;;;12.00;99.90;;;;;;5061892;28;20364;-77
2021/09/02 00:13:35;;;;;;;1.58;1.33;;;11.90;99.90;;;;;;5063644;28;20052;-77
2021/09/02 00:16:01;;;;;;;2.70;1.20;;;11.90;99.90;;;;;;5057591;28;20090;-78
2021/09/02 00:18:29;;;;;;;1.80;1.65;;;11.90;99.90;;;;;;5054705;28;20433;-78
2021/09/02 00:20:54;;;;;;;4.95;1.83;;;12.20;99.90;;;;;;5065415;28;20045;-78
2021/09/02 00:23:20;;;;;;;2.90;1.35;;;12.00;99.90;;;;;;5041840;28;20048;-78
2021/09/02 00:25:46;;;;;;;1.25;1.15;;;;;;;;;;5053299;28;20040;-78
2021/09/02 00:28:12;;;;;;;;;;;11.90;99.90;;;;;;5052351;28;20041;-78
2021/09/02 00:30:37;;;;;;;3.97;1.55;;;12.00;99.90;;;;;;5052679;28;19923;-78
2021/09/02 00:33:03;;;;;;;0.55;0.55;;;11.90;99.90;;;;;;5065775;28;20040;-77
2021/09/02 00:35:29;;;;;;;1.30;1.23;;;11.90;99.90;;;;;;5052148;28;20099;-78
2021/09/02 00:37:55;;;;;;;1.67;1.33;;;12.00;99.90;;;;;;5052098;28;20450;-78
2021/09/02 00:40:20;;;;;;;2.53;1.27;;;12.20;99.90;;;;;;5035728;28;20407;-77
2021/09/02 00:42:46;;;;;;;14.48;1.90;;;12.00;99.90;;;;;;5051550;28;20049;-77
2021/09/02 00:45:12;;;;;;;1.20;1.10;;;11.90;99.90;;;;;;5052371;28;20055;-77
2021/09/02 00:47:38;;;;;;;1.10;1.00;;;12.00;99.90;;;;;;5051071;28;20048;-77
2021/09/02 00:50:05;;;;;;;;;;;12.00;99.90;;;;;;5053164;28;20045;-78
2021/09/02 00:52:32;;;;;;;1.67;1.58;;;12.10;99.90;;;;;;5059241;28;19917;-77
2021/09/02 00:55:02;;;;;;;2.38;1.77;;;12.00;99.90;;;;;;5050312;28;20084;-77
2021/09/02 00:57:29;;;;;;;2.10;1.88;;;12.10;99.90;;;;;;5051635;28;20051;-77
2021/09/02 01:00:00;;;;;;;1.50;1.33;;;12.20;99.90;;;;;;5060296;28;20048;-77
2021/09/02 01:02:28;;;;;;;3.17;1.75;;;12.30;99.90;;;;;;5065261;28;20072;-77
2021/09/02 01:04:55;;;;;;;1.23;0.95;;;12.30;99.90;;;;;;5097930;28;20493;-77
2021/09/02 01:07:26;;;;;;;2.00;1.17;;;12.40;99.90;;;;;;5063645;28;20041;-77
2021/09/02 01:09:53;;;;;;;1.02;0.95;;;12.40;99.90;;;;;;5052924;28;20052;-77
2021/09/02 01:12:29;;;;;;;1.23;1.10;;;12.40;99.90;;;;;;5062307;28;20127;-77
2021/09/02 01:14:56;;;;;;;1.42;1.33;;;12.30;99.90;;;;;;5066585;28;20411;-77
2021/09/02 01:17:23;;;;;;;2.17;1.27;;;12.40;99.90;;;;;;5044027;28;20474;-77
2021/09/02 01:19:51;;;;;;;1.38;1.23;;;12.50;99.90;;;;;;5069480;28;20040;-77
2021/09/02 01:22:18;;;;;;;2.05;1.35;;;12.60;99.90;;;;;;5067854;28;20044;-77
2021/09/02 01:24:44;;;;;;;1.25;0.93;;;12.70;99.90;;;;;;5062039;28;20086;-78
2021/09/02 01:27:09;;;;;;;2.50;1.90;;;12.70;99.90;;;;;;5048043;28;20052;-77
2021/09/02 01:29:35;;;;;;;2.17;1.20;;;12.90;99.90;;;;;;5047213;28;20064;-77
2021/09/02 01:32:01;;;;;;;2.58;1.65;;;12.80;99.90;;;;;;5063926;28;20041;-77
2021/09/02 01:34:27;;;;;;;2.03;1.42;;;12.90;99.90;;;;;;5052053;28;20448;-78
2021/09/02 01:36:52;;;;;;;1.83;1.38;;;12.90;99.90;;;;;;5042036;28;20094;-77
2021/09/02 01:39:19;;;;;;;4.28;1.55;;;12.90;99.90;;;;;;5069435;28;20052;-76
2021/09/02 01:41:45;;;;;;;4.55;1.50;;;;;;;;;;5070079;28;20397;-77
2021/09/02 01:44:11;;;;;;;2.33;2.13;;;13.00;99.90;;;;;;5070006;28;20060;-77
2021/09/02 01:46:37;;;;;;;1.65;1.55;;;12.90;99.90;;;;;;5069404;28;20040;-77
2021/09/02 01:49:03;;;;;;;5.93;1.77;;;13.00;99.90;;;;;;5069086;28;20393;-78
2021/09/02 01:51:29;;;;;;;4.72;1.27;;;13.00;99.90;;;;;;5048320;28;20059;-77
2021/09/02 01:53:54;;;;;;;3.72;1.63;;;13.10;99.90;;;;;;5072717;28;20048;-77
2021/09/02 01:56:20;;;;;;;4.28;1.65;;;13.00;99.90;;;;;;5062433;28;20037;-77
2021/09/02 01:58:46;;;;;;;2.75;2.40;;;13.10;99.90;;;;;;5058313;28;20455;-78
2021/09/02 02:01:12;;;;;;;4.32;2.05;;;13.00;99.90;;;;;;5054566;28;20045;-76
2021/09/02 02:03:38;;;;;;;3.50;2.72;;;13.20;99.90;;;;;;5065698;28;20048;-77
2021/09/02 02:06:03;;;;;;;2.72;1.48;;;13.20;99.90;;;;;;5045494;28;20045;-78
2021/09/02 02:08:29;;;;;;;2.30;1.67;;;13.20;99.90;;;;;;5062465;28;20479;-78
2021/09/02 02:10:55;;;;;;;2.17;1.67;;;13.20;99.90;;;;;;5035973;28;20426;-77
2021/09/02 02:13:20;;;;;;;4.03;2.47;;;13.40;99.90;;;;;;5050447;28;20044;-77
2021/09/02 02:15:46;;;;;;;3.72;2.28;;;13.50;99.90;;;;;;5065110;28;20463;-77
2021/09/02 02:18:12;;;;;;;2.33;2.13;;;13.50;99.90;;;;;;5067046;28;20041;-77
2021/09/02 02:20:38;;;;;;;6.07;2.00;;;13.50;99.90;;;;;;5064687;28;20049;-78
2021/09/02 02:23:04;;;;;;;2.65;1.75;;;13.40;99.90;;;;;;5051302;28;20477;-77
2021/09/02 02:25:29;;;;;;;4.03;2.13;;;13.60;99.90;;;;;;5045785;28;20037;-77
2021/09/02 02:27:55;;;;;;;4.30;2.33;;;13.70;99.90;;;;;;5056032;28;20037;-77
2021/09/02 02:30:22;;;;;;;5.35;1.70;;;13.70;99.90;;;;;;5056775;28;20051;-77
2021/09/02 02:32:48;;;;;;;1.60;1.10;;;13.80;99.90;;;;;;5055359;28;20405;-77
2021/09/02 02:35:15;;;;;;;2.45;2.00;;;13.90;99.90;;;;;;5070581;28;20048;-77
2021/09/02 02:37:42;;;;;;;2.35;1.58;;;13.80;99.90;;;;;;5063501;28;20119;-77
2021/09/02 02:40:09;;;;;;;4.85;1.90;;;13.90;99.90;;;;;;5052828;28;20103;-78
2021/09/02 02:42:35;;;;;;;3.20;1.90;;;13.80;99.90;;;;;;5070636;28;20119;-77
2021/09/02 02:45:01;;;;;;;8.93;2.72;;;13.80;99.90;;;;;;5069216;28;20116;-77
2021/09/02 02:47:26;;;;;;;4.10;1.88;;;13.90;99.90;;;;;;5060703;28;20737;-77
2021/09/02 02:49:52;;;;;;;;;;;13.80;99.90;;;;;;5067825;28;20072;-78
2021/09/02 02:52:18;;;;;;;5.53;2.47;;;13.90;99.90;;;;;;5071906;28;19978;-78
2021/09/02 02:54:43;;;;;;;4.43;2.22;;;13.90;99.90;;;;;;5045617;28;20048;-77
2021/09/02 02:57:09;;;;;;;3.75;1.65;;;13.90;99.90;;;;;;5054556;28;20397;-77
2021/09/02 02:59:35;;;;;;;3.17;1.63;;;13.90;99.90;;;;;;5059422;28;20044;-77
2021/09/02 03:02:00;;;;;;;2.00;1.30;;;14.10;99.90;;;;;;5053514;28;20554;-77
2021/09/02 03:04:26;;;;;;;5.70;2.78;;;14.00;99.90;;;;;;5041445;28;20041;-77
2021/09/02 03:06:52;;;;;;;3.95;2.22;;;14.00;99.90;;;;;;5039628;28;20041;-78
2021/09/02 03:09:18;;;;;;;;;;;13.90;99.90;;;;;;5058850;28;20044;-78
2021/09/02 03:11:43;;;;;;;3.22;2.10;;;14.00;99.90;;;;;;5085958;28;20282;-78
2021/09/02 03:14:09;;;;;;;3.72;2.00;;;14.00;99.90;;;;;;5058383;28;20037;-78
2021/09/02 03:16:35;;;;;;;2.45;1.98;;;14.10;99.90;;;;;;5057380;28;20040;-78
2021/09/02 03:19:00;;;;;;;5.00;2.28;;;14.10;99.90;;;;;;5056723;28;20563;-77
2021/09/02 03:21:26;;;;;;;;;;;14.10;99.90;;;;;;5039747;28;20037;-78
2021/09/02 03:23:52;;;;;;;6.53;2.65;;;14.20;99.90;;;;;;5057634;28;19921;-78
2021/09/02 03:26:18;;;;;;;9.63;3.20;;;14.20;99.90;;;;;;5055513;28;20086;-77
2021/09/02 03:28:43;;;;;;;;;;;14.20;99.90;;;;;;5060616;28;20040;-78
2021/09/02 03:31:09;;;;;;;6.22;2.53;;;14.20;99.90;;;;;;5051751;28;20333;-78
2021/09/02 03:33:35;;;;;;;2.65;1.95;;;14.40;99.90;;;;;;5058464;28;20048;-78
2021/09/02 03:36:01;;;;;;;6.22;2.78;;;14.50;99.90;;;;;;5058175;28;20098;-78
2021/09/02 03:38:26;;;;;;;7.03;3.88;;;14.50;99.90;;;;;;5046065;28;20053;-78
2021/09/02 03:40:52;;;;;;;;;;;14.40;99.90;;;;;;5059685;28;20049;-77
2021/09/02 03:43:20;;;;;;;6.20;4.07;;;14.60;99.90;;;;;;5068969;28;20393;-78
2021/09/02 03:45:47;;;;;;;5.68;3.03;;;14.60;99.90;;;;;;5057584;28;20538;-77
2021/09/02 03:48:12;;;;;;;5.32;3.58;;;14.60;99.90;;;;;;5045488;28;20055;-78
2021/09/02 03:50:38;;;;;;;3.22;1.95;;;14.70;99.90;;;;;;5057818;28;20036;-78
2021/09/02 03:53:04;;;;;;;;;;;14.50;99.90;;;;;;5047040;28;20044;-78
2021/09/02 03:55:29;;;;;;;7.35;3.22;;;14.50;99.90;;;;;;5057536;28;20290;-78
2021/09/02 03:57:55;;;;;;;7.05;2.97;;;14.50;99.90;;;;;;5041290;28;20040;-78
2021/09/02 04:00:21;;;;;;;;;;;14.50;99.90;;;;;;5058239;28;20060;-78
2021/09/02 04:02:46;;;;;;;9.02;4.35;;;14.60;99.90;;;;;;5057064;28;19927;-78
2021/09/02 04:05:12;;;;;;;;;;;14.60;99.90;;;;;;5057686;28;20101;-78
2021/09/02 04:07:38;;;;;;;4.20;2.72;;;14.60;99.90;;;;;;5061564;28;20002;-78
2021/09/02 04:10:04;;;;;;;;;;;14.50;99.90;;;;;;5077407;28;20047;-78
2021/09/02 04:12:30;;;;;;;4.60;2.17;;;14.60;99.90;;;;;;5061517;28;19916;-79
2021/09/02 04:14:56;;;;;;;5.82;3.90;;;14.60;99.90;;;;;;5041406;28;20045;-78
2021/09/02 04:17:22;;;;;;;14.80;3.67;;;14.60;99.90;;;;;;5061373;28;20059;-78
2021/09/02 04:19:47;;;;;;;;;;;14.60;99.90;;;;;;5032141;28;20139;-78
2021/09/02 04:22:13;;;;;;;5.45;3.83;;;14.60;99.90;;;;;;5061492;28;19921;-78
2021/09/02 04:24:38;;;;;;;4.30;3.05;;;14.60;99.90;;;;;;5057446;28;20375;-77
2021/09/02 04:27:04;;;;;;;;;;;14.70;99.90;;;;;;5039746;28;20371;-77
2021/09/02 04:29:30;;;;;;;7.40;2.65;;;14.60;99.90;;;;;;5034165;28;19921;-78
2021/09/02 04:31:55;;;;;;;;;;;14.60;99.90;;;;;;5025657;28;20169;-77
2021/09/02 04:34:21;;;;;;;4.78;2.70;;;14.60;99.90;;;;;;5055762;28;19967;-77
2021/09/02 04:36:47;;;;;;;2.65;1.98;;;14.70;99.90;;;;;;5048764;28;20064;-78
2021/09/02 04:39:12;;;;;;;;;;;14.70;99.90;;;;;;5044403;28;20064;-77
2021/09/02 04:41:38;;;;;;;5.18;1.95;;;14.70;99.90;;;;;;5094168;28;19927;-78
2021/09/02 04:44:04;;;;;;;;;;;14.70;99.90;;;;;;5024684;28;20037;-77
2021/09/02 04:46:29;;;;;;;2.47;1.98;;;14.60;99.90;;;;;;5062266;28;19917;-78
2021/09/02 04:48:55;;;;;;;5.35;2.50;;;14.80;99.90;;;;;;5056212;28;20037;-78
2021/09/02 04:51:21;;;;;;;5.65;2.47;;;14.80;99.90;;;;;;5049846;28;20123;-77
2021/09/02 04:53:46;;;;;;;5.65;3.10;;;14.70;99.90;;;;;;5061013;28;20040;-78
2021/09/02 04:56:12;;;;;;;2.25;1.98;;;14.90;99.90;;;;;;5053137;28;20053;-78
2021/09/02 04:58:38;;;;;;;4.47;2.13;;;14.60;99.90;;;;;;5043944;28;20064;-77
2021/09/02 05:01:05;;;;;;;3.80;2.40;;;14.80;99.90;;;;;;5047217;28;20041;-78
2021/09/02 05:03:31;;;;;;;4.28;2.20;;;14.70;99.90;;;;;;5043319;28;20044;-78
2021/09/02 05:05:57;;;;;;;2.67;1.33;;;14.90;99.90;;;;;;5035707;28;20040;-79
2021/09/02 05:08:22;;;;;;;2.83;1.88;;;14.90;99.90;;;;;;5023728;28;20409;-79
2021/09/02 05:10:49;;;;;;;11.20;2.65;;;14.90;99.90;;;;;;5019397;28;20124;-79
2021/09/02 05:13:15;;;;;;;2.15;1.83;;;14.80;99.90;;;;;;5046130;28;20045;-78
2021/09/02 05:15:41;;;;;;;7.15;2.83;;;14.70;99.90;;;;;;5062980;28;20048;-78
2021/09/02 05:18:06;;;;;;;8.43;2.42;;;14.90;99.90;;;;;;5050070;28;20051;-78
2021/09/02 05:20:32;;;;;;;4.70;3.75;;;14.80;99.90;;;;;;5045541;28;20082;-78
2021/09/02 05:22:58;;;;;;;3.17;2.20;;;14.90;99.90;;;;;;5057629;28;20420;-78
2021/09/02 05:25:24;;;;;;;10.32;3.10;;;15.00;99.90;;;;;;5063941;28;20474;-78
2021/09/02 05:27:50;;;;;;;2.72;1.83;;;15.00;99.90;;;;;;5020412;28;20045;-78
2021/09/02 05:30:16;;;;;;;;;;;14.90;99.90;;;;;;5034752;28;20049;-78
2021/09/02 05:32:42;;;;;;;5.40;1.70;;;14.80;99.90;;;;;;5082507;28;20274;-78
2021/09/02 05:35:09;;;;;;;5.13;1.83;;;14.90;99.90;;;;;;5052134;28;20469;-78
2021/09/02 05:37:35;;;;;;;3.58;2.08;;;14.90;99.90;;;;;;5055757;28;20040;-78
2021/09/02 05:40:00;;;;;;;3.80;1.52;;;14.80;99.90;;;;;;5039874;28;20502;-79
2021/09/02 05:42:26;;;;;;;4.57;2.30;;;15.00;99.90;;;;;;5030480;28;20041;-78
2021/09/02 05:44:52;;;;;;;;;;;15.00;99.90;;;;;;5055526;28;20813;-79
2021/09/02 05:47:17;;;;;;;3.90;1.90;;;14.70;99.90;;;;;;5055649;28;19920;-79
2021/09/02 05:49:43;;;;;;;2.30;1.40;;;14.80;99.90;;;;;;5039506;28;20126;-78
2021/09/02 05:52:09;;;;;;;;;;;14.90;99.90;;;;;;5054189;28;20060;-77
2021/09/02 05:54:34;;;;;;;4.60;1.98;;;14.90;99.90;;;;;;5055517;28;19920;-77
2021/09/02 05:57:00;;;;;;;;;;;14.90;99.90;;;;;;5055898;28;20098;-77
2021/09/02 05:59:25;;;;;;;3.13;2.15;;;15.00;99.90;;;;;;5062331;28;19928;-77
2021/09/02 06:01:51;;;;;;;2.38;1.48;;;14.90;99.90;;;;;;5050131;28;20124;-77
2021/09/02 06:04:17;;;;;;;;;;;14.90;99.90;;;;;;5062254;28;20041;-79
2021/09/02 06:06:42;;;;;;;2.97;1.55;;;14.90;99.90;;;;;;5064041;28;19920;-78
2021/09/02 06:09:08;;;;;;;2.92;2.10;;;15.00;99.90;;;;;;5054384;28;20033;-78
2021/09/02 06:11:35;;;;;;;2.63;2.25;;;15.00;99.90;;;;;;5052570;28;20040;-78
2021/09/02 06:14:01;;;;;;;3.33;1.90;;;15.00;99.90;;;;;;5058788;28;20490;-78
2021/09/02 06:16:27;;;;;;;5.28;2.38;;;15.00;99.90;;;;;;5048960;28;20409;-78
2021/09/02 06:18:53;;;;;;;5.30;2.08;;;15.00;99.90;;;;;;5057898;28;20045;-78
2021/09/02 06:21:18;;;;;;;;;;;15.10;99.90;;;;;;5060971;28;20105;-78
2021/09/02 06:23:44;;;;;;;2.85;1.73;;;15.10;99.90;;;;;;5058463;28;19956;-78
2021/09/02 06:26:10;;;;;;;;;;;15.10;99.90;;;;;;5066937;28;20041;-78
2021/09/02 06:28:36;;;;;;;12.63;2.13;;;15.20;99.90;;;;;;5085737;28;19971;-77
2021/09/02 06:31:01;;;;;;;;;;;15.20;99.90;;;;;;5070855;28;20041;-78
2021/09/02 06:33:27;;;;;;;4.93;2.20;;;15.20;99.90;;;;;;5056210;28;19921;-78
2021/09/02 06:35:53;;;;;;;;;;;15.30;99.90;;;;;;5053538;28;20061;-78
2021/09/02 06:38:18;;;;;;;3.17;2.08;;;15.30;99.90;;;;;;5051411;28;19921;-77
2021/09/02 06:40:44;;;;;;;6.47;1.88;;;15.40;99.90;;;;;;5052466;28;20374;-78
2021/09/02 06:43:10;;;;;;;;;;;15.40;99.90;;;;;;5055116;28;20047;-79
2021/09/02 06:45:35;;;;;;;1.55;1.40;;;15.40;99.90;;;;;;5059862;28;19924;-78
2021/09/02 06:48:01;;;;;;;;;;;15.50;99.90;;;;;;5055731;28;20047;-79
2021/09/02 06:50:27;;;;;;;1.77;1.60;;;15.50;99.90;;;;;;5054124;28;19917;-78
2021/09/02 06:52:53;;;;;;;4.30;2.03;;;15.50;99.90;;;;;;5057544;28;20049;-78
2021/09/02 06:55:18;;;;;;;;;;;15.60;99.90;;;;;;5058847;28;20538;-79
2021/09/02 06:57:44;;;;;;;2.28;1.58;;;15.70;99.90;;;;;;5060690;28;19999;-79
2021/09/02 07:00:10;;;;;;;;;;;15.60;99.90;;;;;;5063673;28;20102;-79
2021/09/02 07:02:36;;;;;;;4.55;2.13;;;15.70;99.90;;;;;;5081907;28;20369;-78
2021/09/02 07:05:04;;;;;;;1.95;1.63;;;15.70;99.90;;;;;;5062560;28;20032;-79
2021/09/02 07:07:30;;;;;;;3.50;2.25;;;15.70;99.90;;;;;;5059815;28;20052;-79
2021/09/02 07:09:55;;;;;;;3.63;1.73;;;15.70;99.90;;;;;;5063880;28;20048;-79
2021/09/02 07:12:21;;;;;;;5.07;2.22;;;15.80;99.90;;;;;;5068806;28;20093;-79
2021/09/02 07:14:47;;;;;;;;;;;15.80;99.90;;;;;;5068719;28;20086;-78
2021/09/02 07:17:12;;;;;;;10.63;2.50;;;15.80;99.90;;;;;;5064072;28;19999;-78
2021/09/02 07:19:38;;;;;;;;;;;15.80;99.90;;;;;;5050723;28;20037;-78
2021/09/02 07:22:04;;;;;;;2.10;1.80;;;15.90;99.90;;;;;;5086145;28;19916;-79
2021/09/02 07:24:29;;;;;;;;;;;15.90;99.90;;;;;;5050199;28;20036;-79
2021/09/02 07:26:55;;;;;;;2.20;1.63;;;15.90;99.90;;;;;;5103693;28;19924;-79
2021/09/02 07:29:21;;;;;;;;;;;16.00;99.90;;;;;;5044695;28;20484;-78
2021/09/02 07:31:46;;;;;;;4.05;2.33;;;16.10;99.90;;;;;;5069704;28;19931;-79
2021/09/02 07:34:12;;;;;;;;;;;16.00;99.90;;;;;;5056264;28;20421;-80
2021/09/02 07:36:38;;;;;;;4.80;2.70;;;16.20;99.90;;;;;;5069819;28;20354;-78
2021/09/02 07:39:05;;;;;;;3.53;2.03;;;16.10;99.90;;;;;;5036441;28;20441;-80
2021/09/02 07:41:31;;;;;;;3.40;2.28;;;16.10;99.90;;;;;;5050051;28;20039;-80
2021/09/02 07:43:57;;;;;;;5.10;1.80;;;16.20;99.90;;;;;;5039421;28;20040;-79
2021/09/02 07:46:23;;;;;;;2.30;2.03;;;16.30;99.90;;;;;;5057024;28;20175;-78
2021/09/02 07:48:49;;;;;;;;;;;16.30;99.90;;;;;;5039495;28;20033;-80
2021/09/02 07:51:17;;;;;;;3.03;2.22;;;16.30;99.90;;;;;;5040069;28;19916;-78
2021/09/02 07:53:42;;;;;;;10.10;1.83;;;16.30;99.90;;;;;;5086097;28;20046;-78
2021/09/02 07:56:08;;;;;;;7.43;2.60;;;16.40;99.90;;;;;;5054760;28;20039;-78
2021/09/02 07:58:34;;;;;;;;;;;16.40;99.90;;;;;;5057213;28;20123;-78
2021/09/02 08:01:00;;;;;;;2.38;2.03;;;16.40;99.90;;;;;;5056371;28;20261;-79
2021/09/02 08:03:26;;;;;;;4.90;2.10;;;16.40;99.90;;;;;;5056301;28;20041;-78
2021/09/02 08:05:52;;;;;;;6.28;2.70;;;16.40;99.90;;;;;;5054725;28;20159;-79
2021/09/02 08:08:18;;;;;;;4.90;2.03;;;16.50;99.90;;;;;;5055803;28;20076;-79
2021/09/02 08:10:48;;;;;;;2.95;2.10;;;16.50;99.90;;;;;;5056776;28;20389;-79
2021/09/02 08:13:15;;;;;;;4.80;2.25;;;16.50;99.90;;;;;;5058143;28;20037;-80
2021/09/02 08:15:41;;;;;;;6.75;2.47;;;16.60;99.90;;;;;;5055801;28;20124;-79
2021/09/02 08:18:07;;;;;;;;;;;16.60;99.90;;;;;;5038826;28;20481;-79
2021/09/02 08:20:34;;;;;;;2.50;2.00;;;16.70;99.90;;;;;;5055253;28;20007;-80
2021/09/02 08:23:00;;;;;;;2.88;1.90;;;16.70;99.90;;;;;;5055841;28;20056;-80
2021/09/02 08:25:26;;;;;;;2.28;1.52;;;16.80;99.90;;;;;;5051954;28;20045;-79
2021/09/02 08:27:53;;;;;;;2.08;1.85;;;16.80;99.90;;;;;;5038296;28;20493;-79
2021/09/02 08:30:24;;;;;;;3.92;2.13;;;16.80;99.90;;;;;;5052280;28;20059;-77
2021/09/02 08:32:50;;;;;;;2.17;1.67;;;17.00;99.90;;;;;;5057996;28;20127;-77
2021/09/02 08:35:31;;;;;;;3.15;1.65;;;17.00;99.90;;;;;;5060130;28;20060;-80
2021/09/02 08:37:59;;;;;;;2.65;2.40;;;17.10;99.90;;;;;;5043577;28;20071;-78
2021/09/02 08:40:32;;;;;;;5.05;2.38;;;17.30;99.90;;;;;;5038484;28;20519;-78
2021/09/02 08:42:58;;;;;;;2.58;1.73;;;17.20;99.90;;;;;;5051179;28;20041;-78
2021/09/02 08:45:26;;;;;;;4.97;2.70;;;17.30;99.90;;;;;;5054849;28;20032;-77
2021/09/02 08:47:52;;;;;;;4.43;1.50;;;17.20;99.90;;;;;;5035718;28;20494;-76
2021/09/02 08:50:23;;;;;;;;;;;17.10;99.90;;;;;;5039120;28;20075;-78
2021/09/02 08:52:50;;;;;;;3.92;1.77;;;17.20;99.90;;;;;;5085647;28;19999;-77
2021/09/02 08:55:17;;;;;;;3.00;1.73;;;17.20;99.90;;;;;;5081762;28;20038;-77
2021/09/02 08:57:44;;;;;;;5.18;2.17;;;17.20;99.90;;;;;;5060402;28;20076;-78
2021/09/02 09:00:10;;;;;;;4.75;2.08;;;17.20;99.90;;;;;;5069391;28;20040;-78
2021/09/02 09:02:43;;;;;;;7.65;2.10;;;17.30;99.90;;;;;;5045460;28;20115;-78
2021/09/02 09:05:11;;;;;;;1.95;1.33;;;17.30;99.90;;;;;;5084525;28;20078;-78
2021/09/02 09:07:39;;;;;;;3.63;2.17;;;17.30;99.90;;;;;;5059890;28;20033;-78
2021/09/02 09:10:18;;;;;;;2.70;2.20;;;17.40;99.90;;;;;;5053921;28;20040;-78
2021/09/02 09:12:51;;;;;;;3.35;1.50;;;17.50;99.90;;;;;;5066447;28;20377;-77
2021/09/02 09:15:22;;;;;;;4.82;1.58;;;17.60;99.90;;;;;;5062801;28;20052;-78
2021/09/02 09:17:51;;;;;;;2.67;1.60;;;17.60;99.90;;;;;;5038307;28;20041;-77
2021/09/02 09:20:18;;;;;;;4.80;2.65;;;17.50;99.90;;;;;;5051110;28;20052;-78
2021/09/02 09:22:57;;;;;;;2.50;1.90;;;17.50;99.90;;;;;;5070453;28;20413;-78
2021/09/02 09:25:25;;;;;;;4.10;2.25;;;17.50;99.90;;;;;;5071898;28;20044;-77
2021/09/02 09:27:53;;;;;;;2.75;1.75;;;17.40;99.90;;;;;;5087527;28;20432;-78
2021/09/02 09:30:23;;;;;;;4.57;1.50;;;17.40;99.90;;;;;;5052726;28;20052;-78
2021/09/02 09:32:55;;;;;;;4.35;2.10;;;17.50;99.90;;;;;;5055138;28;20040;-78
2021/09/02 09:35:25;;;;;;;4.03;2.45;;;17.60;99.90;;;;;;5039749;28;20084;-78
2021/09/02 09:38:08;;;;;;;3.97;1.98;;;17.50;99.90;;;;;;5064562;28;20048;-78
2021/09/02 09:40:43;;;;;;;4.07;2.03;;;17.50;99.90;;;;;;5062640;28;20406;-78
2021/09/02 09:43:20;;;;;;;3.45;2.10;;;17.50;99.90;;;;;;5065975;28;20082;-79
2021/09/02 09:45:46;;;;;;;4.20;1.73;;;17.60;99.90;;;;;;5063215;28;20808;-78
2021/09/02 09:48:28;;;;;;;1.95;1.60;;;17.60;99.90;;;;;;5047756;28;20133;-77
2021/09/02 09:51:15;;;;;;;2.75;1.95;;;17.50;99.90;;;;;;5050132;28;20424;-78
2021/09/02 09:53:52;;;;;;;3.55;2.53;;;17.50;99.90;;;;;;5063876;28;20048;-76
2021/09/02 09:56:21;;;;;;;3.10;2.17;;;17.60;99.90;;;;;;5089186;28;20516;-78
2021/09/02 09:58:48;;;;;;;2.70;1.73;;;17.60;99.90;;;;;;5063520;28;20052;-78
2021/09/02 10:01:15;;;;;;;3.85;2.72;;;17.80;99.90;;;;;;5060974;28;20083;-78
2021/09/02 10:03:42;;;;;;;2.13;1.38;;;17.80;99.90;;;;;;5034222;28;20045;-79
2021/09/02 10:06:12;;;;;;;3.78;2.08;;;17.80;99.90;;;;;;5067057;28;20033;-78
2021/09/02 10:08:43;;;;;;;4.90;2.30;;;17.90;99.90;;;;;;5051933;28;20044;-79
2021/09/02 10:11:11;;;;;;;2.38;1.67;;;18.00;99.90;;;;;;5051935;28;20059;-78
2021/09/02 10:13:37;;;;;;;2.67;1.80;;;18.00;99.90;;;;;;5051816;28;20490;-77
2021/09/02 10:16:04;;;;;;;4.43;1.98;;;18.00;99.90;;;;;;5050994;28;20110;-77
2021/09/02 10:18:31;;;;;;;3.55;1.65;;;18.10;99.90;;;;;;5052198;28;20041;-78
2021/09/02 10:21:03;;;;;;;3.20;2.40;;;18.20;99.90;;;;;;5049642;28;20057;-78
2021/09/02 10:23:29;;;;;;;3.70;2.05;;;18.10;99.90;;;;;;5051662;28;20037;-78
2021/09/02 10:25:54;;;;;;;;;;;18.10;99.90;;;;;;5051291;28;20033;-79
2021/09/02 10:28:29;;;;;;;6.90;2.35;;;18.00;99.90;;;;;;5052576;28;19923;-77
2021/09/02 10:30:58;;;;;;;4.18;2.22;;;18.00;99.90;;;;;;5083882;28;20482;-77
2021/09/02 10:33:35;;;;;;;2.28;1.58;;;18.00;99.90;;;;;;5084106;28;20135;-78
2021/09/02 10:36:10;;;;;;;2.63;1.65;;;18.00;99.90;;;;;;5050782;28;20053;-77
2021/09/02 10:38:56;;;;;;;3.90;2.22;;;18.00;99.90;;;;;;5066450;28;20075;-78
2021/09/02 10:41:37;;;;;;;3.85;1.65;;;18.00;99.90;;;;;;5044841;28;20134;-78
2021/09/02 10:44:10;;;;;;;3.03;2.17;;;18.00;99.90;;;;;;5063867;28;20040;-78
2021/09/02 10:46:55;;;;;;;5.20;2.17;;;18.10;99.90;;;;;;5057668;28;20025;-78
2021/09/02 10:49:31;;;;;;;1.55;1.35;;;18.20;99.90;;;;;;5058463;28;20051;-78
2021/09/02 10:52:03;;;;;;;2.85;1.52;;;18.30;99.90;;;;;;5060955;28;20406;-78
2021/09/02 10:54:32;;;;;;;5.47;2.00;;;18.30;99.90;;;;;;5054471;28;20045;-78
2021/09/02 10:57:12;;;;;;;7.20;1.73;;;18.20;99.90;;;;;;5038261;28;20060;-79
2021/09/02 10:59:44;;;;;;;2.35;1.52;;;18.20;99.90;;;;;;5034959;28;20044;-77
2021/09/02 11:02:30;;;;;;;2.03;1.60;;;18.10;99.90;;;;;;5055908;28;20048;-79
2021/09/02 11:05:03;;;;;;;1.92;1.17;;;18.00;99.90;;;;;;5037945;28;20041;-78
2021/09/02 11:07:45;;;;;;;3.00;2.17;;;18.10;99.90;;;;;;5066294;28;20484;-80
2021/09/02 11:10:13;;;;;;;2.30;1.85;;;18.30;99.90;;;;;;5054549;28;20467;-79
2021/09/02 11:12:39;;;;;;;3.75;2.35;;;18.30;99.90;;;;;;5059437;28;20044;-78
2021/09/02 11:15:06;;;;;;;5.68;1.95;;;18.40;99.90;;;;;;5032864;28;20052;-78
2021/09/02 11:17:33;;;;;;;5.03;1.83;;;18.40;99.90;;;;;;5052812;28;20040;-78
2021/09/02 11:19:59;;;;;;;3.15;1.60;;;18.50;99.90;;;;;;5047032;28;20045;-79
2021/09/02 11:22:25;;;;;;;;;;;18.60;99.90;;;;;;5051048;28;20042;-78
2021/09/02 11:24:52;;;;;;;4.90;2.53;;;18.70;99.90;;;;;;5070727;28;19916;-80
2021/09/02 11:27:29;;;;;;;2.70;1.52;;;18.60;99.90;;;;;;5051916;28;20047;-78
2021/09/02 11:30:11;;;;;;;2.63;1.67;;;18.40;99.90;;;;;;5045315;28;20080;-77
2021/09/02 11:32:37;;;;;;;3.35;1.75;;;18.40;99.90;;;;;;5060968;28;20047;-79
2021/09/02 11:35:03;;;;;;;;;;;18.40;99.90;;;;;;5054637;28;20057;-78
2021/09/02 11:37:44;;;;;;;3.95;2.05;;;18.50;99.90;;;;;;5036233;28;19939;-80
2021/09/02 11:40:24;;;;;;;4.75;2.13;;;18.50;99.90;;;;;;5054208;28;20445;-78
2021/09/02 11:42:50;;;;;;;4.13;2.40;;;18.70;99.90;;;;;;5055802;28;20090;-78
2021/09/02 11:45:17;;;;;;;1.80;1.40;;;18.80;99.90;;;;;;5037966;28;20048;-78
2021/09/02 11:47:43;;;;;;;4.18;1.80;;;18.80;99.90;;;;;;5038291;28;20041;-77
2021/09/02 11:50:09;;;;;;;3.33;1.88;;;18.90;99.90;;;;;;5037933;28;20044;-79
2021/09/02 11:52:40;;;;;;;2.67;1.60;;;18.90;99.90;;;;;;5049683;28;20069;-78
2021/09/02 11:55:06;;;;;;;5.03;1.90;;;19.00;99.90;;;;;;5052256;28;20052;-78
2021/09/02 11:57:32;;;;;;;4.72;2.03;;;19.00;99.90;;;;;;5039027;28;20053;-77
2021/09/02 11:59:58;;;;;;;7.20;2.60;;;19.10;99.90;;;;;;5068554;28;20103;-78
2021/09/02 12:02:24;;;;;;;;;;;19.10;99.90;;;;;;5031337;28;20120;-78
2021/09/02 12:04:51;;;;;;;6.38;2.33;;;19.20;99.90;;;;;;5058690;28;20385;-78
2021/09/02 12:07:18;;;;;;;3.15;2.10;;;19.20;99.90;;;;;;5027506;28;20123;-78
2021/09/02 12:09:48;;;;;;;4.05;1.92;;;19.20;99.90;;;;;;5047930;28;20037;-78
2021/09/02 12:12:26;;;;;;;3.28;1.55;;;19.20;99.90;;;;;;5046377;28;20064;-79
2021/09/02 12:14:52;;;;;;;2.88;1.40;;;19.00;99.90;;;;;;5044245;28;20048;-79
2021/09/02 12:17:18;;;;;;;5.00;2.10;;;18.90;99.90;;;;;;5056857;28;20124;-77
2021/09/02 12:19:49;;;;;;;;;;;18.90;99.90;;;;;;5061889;28;20045;-77
2021/09/02 12:22:15;;;;;;;4.07;2.17;;;18.90;99.90;;;;;;5062182;28;20408;-78
2021/09/02 12:24:41;;;;;;;4.40;2.63;;;19.10;99.90;;;;;;5061174;28;20120;-78
2021/09/02 12:27:06;;;;;;;;;;;19.10;99.90;;;;;;5065222;28;20048;-78
2021/09/02 12:29:45;;;;;;;4.07;2.00;;;19.10;99.90;;;;;;5061455;28;19928;-78
2021/09/02 12:32:17;;;;;;;2.85;1.90;;;19.10;99.90;;;;;;5040785;28;20041;-79
2021/09/02 12:34:43;;;;;;;3.25;1.67;;;19.20;99.90;;;;;;5055421;28;20040;-78
2021/09/02 12:37:14;;;;;;;2.33;1.63;;;19.10;99.90;;;;;;5023237;28;20052;-77
2021/09/02 12:39:50;;;;;;;2.50;1.80;;;19.20;99.90;;;;;;5057738;28;20051;-79
2021/09/02 12:42:23;;;;;;;3.35;1.63;;;19.30;99.90;;;;;;5042769;28;20052;-78
2021/09/02 12:45:06;;;;;;;2.45;1.63;;;19.40;99.90;;;;;;5057160;28;20040;-77
2021/09/02 12:47:31;;;;;;;2.92;1.60;;;19.50;99.90;;;;;;5035750;28;20048;-79
2021/09/02 12:49:57;;;;;;;3.80;2.00;;;19.60;99.90;;;;;;5058045;28;20037;-78
2021/09/02 12:52:25;;;;;;;;;;;19.70;99.90;;;;;;5052729;28;20105;-77
2021/09/02 12:55:05;;;;;;;2.47;1.42;;;19.80;99.90;;;;;;5085933;28;19916;-78
2021/09/02 12:57:34;;;;;;;4.10;1.92;;;19.90;99.90;;;;;;5061363;28;20154;-77
2021/09/02 13:00:01;;;;;;;2.60;1.83;;;20.10;99.90;;;;;;5056962;28;20037;-78
2021/09/02 13:02:27;;;;;;;3.17;1.77;;;20.00;99.90;;;;;;5066973;28;20128;-78